createdAt,value
2022-10-11T00:05:17.922Z,14.10
2022-10-11T00:15:23.260Z,16.90
2022-10-11T00:25:27.026Z,12.50
2022-10-11T00:35:30.604Z,12.80
2022-10-11T00:45:34.671Z,11.40
2022-10-11T00:55:49.494Z,10.90
2022-10-11T01:05:53.671Z,9.60
2022-10-11T01:16:23.740Z,10.50
2022-10-11T01:26:30.475Z,13.20
2022-10-11T01:36:37.927Z,10.60
2022-10-11T01:46:41.891Z,9.80
2022-10-11T01:57:04.399Z,10.80
2022-10-11T02:07:11.573Z,10.20
2022-10-11T02:17:21.264Z,10.00
2022-10-11T02:27:30.848Z,11.20
2022-10-11T02:37:53.650Z,13.90
2022-10-11T02:48:01.058Z,9.80
2022-10-11T02:58:05.202Z,9.00
2022-10-11T03:08:10.629Z,8.30
2022-10-11T03:18:14.350Z,9.40
2022-10-11T03:28:18.072Z,13.10
2022-10-11T03:38:23.012Z,10.50
2022-10-11T03:48:27.193Z,9.80
2022-10-11T03:58:31.066Z,11.80
2022-10-11T04:08:34.627Z,12.80
2022-10-11T04:18:38.499Z,13.30
2022-10-11T04:28:42.327Z,16.50
2022-10-11T04:38:45.931Z,13.00
2022-10-11T04:48:49.692Z,14.20
2022-10-11T04:58:55.091Z,15.70
2022-10-11T05:08:58.869Z,11.10
2022-10-11T05:19:02.506Z,29.50
2022-10-11T05:29:06.195Z,12.50
2022-10-11T05:39:10.062Z,17.20
2022-10-11T05:49:13.628Z,11.20
2022-10-11T05:59:17.803Z,12.80
2022-10-11T06:09:21.489Z,17.00
2022-10-11T06:19:25.339Z,14.90
2022-10-11T06:29:29.232Z,14.20
2022-10-11T06:39:32.881Z,13.40
2022-10-11T06:49:36.674Z,14.30
2022-10-11T06:59:40.638Z,13.10
2022-10-11T07:09:44.594Z,19.70
2022-10-11T07:19:48.386Z,14.80
2022-10-11T07:29:52.451Z,13.40
2022-10-11T07:39:56.304Z,14.30
2022-10-11T07:50:00.275Z,11.50
2022-10-11T08:00:05.380Z,15.70
2022-10-11T08:10:15.719Z,12.60
2022-10-11T08:20:19.670Z,12.10
2022-10-11T08:30:23.740Z,14.10
2022-10-11T08:40:30.436Z,13.60
2022-10-11T08:50:38.836Z,15.10
2022-10-11T09:00:46.818Z,11.90
2022-10-11T09:11:10.432Z,11.90
2022-10-11T09:21:52.874Z,11.90
2022-10-11T09:31:58.808Z,13.90
2022-10-11T09:42:10.820Z,13.00
2022-10-11T09:52:20.456Z,11.90
2022-10-11T10:02:25.552Z,13.20
2022-10-11T10:12:30.957Z,15.60
2022-10-11T10:22:36.344Z,12.70
2022-10-11T10:32:56.092Z,17.60
2022-10-11T10:43:00.080Z,19.30
2022-10-11T10:53:26.675Z,21.20
2022-10-11T11:03:55.668Z,12.30
2022-10-11T11:14:22.510Z,13.40
2022-10-11T11:24:38.131Z,8.70
2022-10-11T11:35:23.742Z,9.60
2022-10-11T11:45:51.442Z,9.70
2022-10-11T11:56:09.085Z,9.40
2022-10-11T12:06:12.606Z,10.20
2022-10-11T12:16:17.931Z,11.00
2022-10-11T12:26:37.157Z,9.70
2022-10-11T12:36:44.171Z,12.90
2022-10-11T12:46:51.008Z,13.10
2022-10-11T12:57:34.286Z,11.80
2022-10-11T13:07:41.735Z,12.20
2022-10-11T13:27:51.776Z,12.20
2022-10-11T13:37:55.853Z,12.70
2022-10-11T13:47:59.781Z,12.10
2022-10-11T13:58:16.245Z,12.30
2022-10-11T14:08:31.166Z,16.40
2022-10-11T14:18:48.648Z,13.20
2022-10-11T14:28:57.547Z,14.40
2022-10-11T14:39:02.515Z,19.70
2022-10-11T14:49:23.682Z,17.10
2022-10-11T14:59:32.979Z,17.50
2022-10-11T15:09:36.950Z,13.60
2022-10-11T15:19:40.932Z,15.50
2022-10-11T15:29:44.980Z,17.80
2022-10-11T15:39:49.801Z,14.30
2022-10-11T15:49:54.076Z,15.30
2022-10-11T15:59:58.131Z,18.60
2022-10-11T16:10:02.625Z,23.50
2022-10-11T16:20:08.027Z,25.30
2022-10-11T16:30:13.501Z,21.70
2022-10-11T16:40:20.682Z,20.60
2022-10-11T16:50:24.752Z,18.30
2022-10-11T17:00:28.719Z,19.00
2022-10-11T17:10:39.753Z,15.90
2022-10-11T17:20:43.929Z,16.70
2022-10-11T17:30:58.348Z,16.80
2022-10-11T17:41:05.741Z,13.40
2022-10-11T17:51:19.231Z,25.00
2022-10-11T18:01:25.962Z,40.50
2022-10-11T18:11:31.123Z,38.70
2022-10-11T18:21:36.197Z,39.40
2022-10-11T18:31:41.444Z,42.20
2022-10-11T18:41:45.444Z,48.20
2022-10-11T18:51:50.390Z,55.20
2022-10-11T19:01:55.248Z,46.70
2022-10-11T19:11:59.677Z,70.50
2022-10-11T19:22:06.840Z,46.50
2022-10-11T19:32:10.885Z,62.40
2022-10-11T19:42:15.899Z,52.20
2022-10-11T19:52:20.470Z,49.80
2022-10-11T20:02:24.637Z,49.40
2022-10-11T20:12:29.579Z,54.60
2022-10-11T20:22:34.169Z,51.40
2022-10-11T20:32:38.165Z,49.60
2022-10-11T20:42:42.209Z,59.50
2022-10-11T20:52:46.250Z,52.40
2022-10-11T21:02:53.115Z,55.50
2022-10-11T21:12:57.173Z,49.80
2022-10-11T21:23:01.128Z,53.30
2022-10-11T21:33:05.401Z,46.40
2022-10-11T21:43:09.071Z,41.20
2022-10-11T21:53:12.641Z,43.50
2022-10-11T22:03:16.307Z,37.50
2022-10-11T22:13:20.382Z,37.40
2022-10-11T22:23:23.836Z,37.10
2022-10-11T22:33:28.060Z,35.90
2022-10-11T22:43:31.891Z,34.90
2022-10-11T22:53:35.967Z,36.70
2022-10-11T23:03:39.614Z,43.20
2022-10-11T23:13:43.844Z,36.50
2022-10-11T23:23:48.396Z,34.10
2022-10-11T23:33:53.925Z,25.90
2022-10-11T23:43:58.697Z,23.50
2022-10-11T23:54:02.297Z,26.60
